createdAt,value
2023-05-10T00:01:05.792Z,12.65
2023-05-10T00:04:08.865Z,12.57
2023-05-10T00:07:11.761Z,12.53
2023-05-10T00:10:14.989Z,12.50
2023-05-10T00:13:18.157Z,12.44
2023-05-10T00:16:21.240Z,12.48
2023-05-10T00:19:24.579Z,12.41
2023-05-10T00:22:27.683Z,12.38
2023-05-10T00:25:30.383Z,12.36
2023-05-10T00:28:33.377Z,12.36
2023-05-10T00:31:36.294Z,12.34
2023-05-10T00:34:39.439Z,12.32
2023-05-10T00:37:42.174Z,12.27
2023-05-10T00:40:45.234Z,12.27
2023-05-10T00:43:49.743Z,12.27
2023-05-10T00:46:53.739Z,12.21
2023-05-10T00:49:57.053Z,12.15
2023-05-10T00:53:02.206Z,12.13
2023-05-10T00:56:05.244Z,12.08
2023-05-10T00:59:11.675Z,12.03
2023-05-10T01:02:14.518Z,11.99
2023-05-10T01:05:17.735Z,11.99
2023-05-10T01:08:21.457Z,11.92
2023-05-10T01:11:24.566Z,11.85
2023-05-10T01:14:27.910Z,11.85
2023-05-10T01:17:32.213Z,11.78
2023-05-10T01:20:43.184Z,11.77
2023-05-10T01:24:14.778Z,11.68
2023-05-10T01:27:32.141Z,11.64
2023-05-10T01:31:02.944Z,11.60
2023-05-10T01:34:14.384Z,11.57
2023-05-10T01:37:26.568Z,11.55
2023-05-10T01:40:41.254Z,11.41
2023-05-10T01:43:58.827Z,11.42
2023-05-10T01:47:39.823Z,11.40
2023-05-10T01:50:46.334Z,11.33
2023-05-10T01:53:50.044Z,11.31
2023-05-10T01:57:07.286Z,11.36
2023-05-10T02:00:11.939Z,11.29
2023-05-10T02:03:19.718Z,11.25
2023-05-10T02:06:25.557Z,11.24
2023-05-10T02:09:31.140Z,11.13
2023-05-10T02:12:38.091Z,11.14
2023-05-10T02:15:41.843Z,11.16
2023-05-10T02:18:45.621Z,11.07
2023-05-10T02:21:49.161Z,11.08
2023-05-10T02:24:52.340Z,11.08
2023-05-10T02:27:57.692Z,11.07
2023-05-10T02:31:01.742Z,11.02
2023-05-10T02:34:07.746Z,11.04
2023-05-10T02:37:11.571Z,10.95
2023-05-10T02:40:15.829Z,10.98
2023-05-10T02:43:20.493Z,10.96
2023-05-10T02:46:23.251Z,10.93
2023-05-10T02:49:26.383Z,10.92
2023-05-10T02:52:48.855Z,10.83
2023-05-10T02:55:54.053Z,10.79
2023-05-10T02:58:56.782Z,10.84
2023-05-10T03:02:01.693Z,10.80
2023-05-10T03:05:05.285Z,10.80
2023-05-10T03:08:08.851Z,10.77
2023-05-10T03:11:40.973Z,10.73
2023-05-10T03:14:47.236Z,10.72
2023-05-10T03:17:58.489Z,10.70
2023-05-10T03:21:08.045Z,10.63
2023-05-10T03:24:16.646Z,10.55
2023-05-10T03:27:21.520Z,10.49
2023-05-10T03:30:25.691Z,10.44
2023-05-10T03:33:28.980Z,10.39
2023-05-10T03:36:31.864Z,10.34
2023-05-10T03:39:35.115Z,10.36
2023-05-10T03:42:38.064Z,10.29
2023-05-10T03:45:41.782Z,10.32
2023-05-10T03:48:44.902Z,10.38
2023-05-10T03:51:48.458Z,10.44
2023-05-10T03:54:52.111Z,10.51
2023-05-10T03:57:55.420Z,10.52
2023-05-10T04:00:58.498Z,10.48
2023-05-10T04:04:02.092Z,10.51
2023-05-10T04:07:07.347Z,10.52
2023-05-10T04:10:10.872Z,10.60
2023-05-10T04:13:13.763Z,10.63
2023-05-10T04:16:17.017Z,10.65
2023-05-10T04:19:19.807Z,10.68
2023-05-10T04:22:22.960Z,10.80
2023-05-10T04:25:25.657Z,10.93
2023-05-10T04:28:29.105Z,11.04
2023-05-10T04:31:31.801Z,11.10
2023-05-10T04:34:35.402Z,11.09
2023-05-10T04:37:38.795Z,11.15
2023-05-10T04:40:41.693Z,11.18
2023-05-10T04:43:44.400Z,11.31
2023-05-10T04:46:47.612Z,11.39
2023-05-10T04:49:50.361Z,11.42
2023-05-10T04:52:53.412Z,11.51
2023-05-10T04:55:56.323Z,11.52
2023-05-10T04:58:59.356Z,11.76
2023-05-10T05:02:02.342Z,11.93
2023-05-10T05:05:06.053Z,11.92
2023-05-10T05:08:09.092Z,12.17
2023-05-10T05:11:12.197Z,12.36
2023-05-10T05:14:15.132Z,12.44
2023-05-10T05:17:18.235Z,12.83
2023-05-10T05:20:21.187Z,13.13
2023-05-10T05:23:25.941Z,13.36
2023-05-10T05:26:28.838Z,13.32
2023-05-10T05:29:32.012Z,13.27
2023-05-10T05:32:34.871Z,13.51
2023-05-10T05:35:37.826Z,13.79
2023-05-10T05:38:40.668Z,14.06
2023-05-10T05:41:43.726Z,13.83
2023-05-10T05:44:46.390Z,13.95
2023-05-10T05:47:49.564Z,14.40
2023-05-10T05:50:56.685Z,14.59
2023-05-10T05:54:00.279Z,14.51
2023-05-10T05:57:03.045Z,14.30
2023-05-10T06:00:07.477Z,14.24
2023-05-10T06:03:15.334Z,14.46
2023-05-10T06:06:18.637Z,14.92
2023-05-10T06:09:21.422Z,14.78
2023-05-10T06:12:24.317Z,14.32
2023-05-10T06:15:27.293Z,14.35
2023-05-10T06:18:30.480Z,14.62
2023-05-10T06:21:33.290Z,14.68
2023-05-10T06:24:36.245Z,14.94
2023-05-10T06:27:39.250Z,14.82
2023-05-10T06:30:42.820Z,14.59
2023-05-10T06:33:45.820Z,14.88
2023-05-10T06:36:48.829Z,14.90
2023-05-10T06:39:51.567Z,15.00
2023-05-10T06:42:54.655Z,15.23
2023-05-10T06:45:57.326Z,15.19
2023-05-10T06:49:01.167Z,15.25
2023-05-10T06:52:03.908Z,15.40
2023-05-10T06:55:07.878Z,15.17
2023-05-10T06:58:10.623Z,15.52
2023-05-10T07:01:13.705Z,15.82
2023-05-10T07:04:16.594Z,16.17
2023-05-10T07:07:20.202Z,16.44
2023-05-10T07:10:23.109Z,16.48
2023-05-10T07:13:26.310Z,16.63
2023-05-10T07:16:29.140Z,16.74
2023-05-10T07:19:34.183Z,16.63
2023-05-10T07:22:37.356Z,16.79
2023-05-10T07:25:40.808Z,17.12
2023-05-10T07:28:43.525Z,17.12
2023-05-10T07:31:47.109Z,17.26
2023-05-10T07:34:49.960Z,17.34
2023-05-10T07:37:52.970Z,17.56
2023-05-10T07:40:55.948Z,17.48
2023-05-10T07:43:59.098Z,17.39
2023-05-10T07:47:01.890Z,17.75
2023-05-10T07:50:05.550Z,17.40
2023-05-10T07:53:08.741Z,17.99
2023-05-10T07:56:30.793Z,17.88
2023-05-10T07:59:34.329Z,17.70
2023-05-10T08:02:37.711Z,18.04
2023-05-10T08:05:40.843Z,17.51
2023-05-10T08:08:43.799Z,18.23
2023-05-10T08:11:46.954Z,18.62
2023-05-10T08:14:49.615Z,18.70
2023-05-10T08:17:53.291Z,18.91
2023-05-10T08:20:56.414Z,18.95
2023-05-10T08:23:59.469Z,18.55
2023-05-10T08:27:02.445Z,18.86
2023-05-10T08:30:07.198Z,19.50
2023-05-10T08:33:10.055Z,19.57
2023-05-10T08:36:15.688Z,19.29
2023-05-10T08:39:29.344Z,19.35
2023-05-10T08:42:39.005Z,19.41
2023-05-10T08:45:46.489Z,18.75
2023-05-10T08:48:51.538Z,19.39
2023-05-10T08:51:57.861Z,19.74
2023-05-10T08:55:01.157Z,19.59
2023-05-10T08:58:05.625Z,19.90
2023-05-10T09:01:09.961Z,19.68
2023-05-10T09:04:14.445Z,19.92
2023-05-10T09:07:18.421Z,19.56
2023-05-10T09:10:22.049Z,19.02
2023-05-10T09:13:26.014Z,19.51
2023-05-10T09:16:28.698Z,18.59
2023-05-10T09:19:31.851Z,19.55
2023-05-10T09:22:36.335Z,18.80
2023-05-10T09:25:42.836Z,19.44
2023-05-10T09:28:57.329Z,19.49
2023-05-10T09:32:00.359Z,20.30
2023-05-10T09:35:16.724Z,20.32
2023-05-10T09:38:20.198Z,20.57
2023-05-10T09:41:25.213Z,20.59
2023-05-10T09:44:29.054Z,21.08
2023-05-10T09:47:38.563Z,20.67
2023-05-10T09:50:43.032Z,20.63
2023-05-10T09:53:46.050Z,21.25
2023-05-10T09:56:48.994Z,21.17
2023-05-10T09:59:51.988Z,20.23
2023-05-10T10:03:01.837Z,20.67
2023-05-10T10:06:18.881Z,20.62
2023-05-10T10:09:30.218Z,20.59
2023-05-10T10:12:34.139Z,21.15
2023-05-10T10:15:37.067Z,20.65
2023-05-10T10:18:40.405Z,20.19
2023-05-10T10:21:44.000Z,20.68
2023-05-10T10:24:47.316Z,19.85
2023-05-10T10:27:53.588Z,20.61
2023-05-10T10:31:02.819Z,21.90
2023-05-10T10:34:09.852Z,21.15
2023-05-10T10:37:13.674Z,20.65
2023-05-10T10:40:35.331Z,21.07
2023-05-10T10:43:38.375Z,21.61
2023-05-10T10:47:24.319Z,22.15
2023-05-10T10:50:28.392Z,20.33
2023-05-10T10:53:32.423Z,19.78
2023-05-10T10:56:37.174Z,20.10
2023-05-10T10:59:47.873Z,19.33
2023-05-10T11:03:03.969Z,21.02
2023-05-10T11:06:07.173Z,22.00
2023-05-10T11:09:13.556Z,22.03
2023-05-10T11:12:16.359Z,20.35
2023-05-10T11:15:19.515Z,21.24
2023-05-10T11:18:26.919Z,22.38
2023-05-10T11:21:32.114Z,23.17
2023-05-10T11:24:35.059Z,22.15
2023-05-10T11:27:39.286Z,20.54
2023-05-10T11:30:44.814Z,20.86
2023-05-10T11:33:53.176Z,21.77
2023-05-10T11:36:56.776Z,21.97
2023-05-10T11:39:59.851Z,22.19
2023-05-10T11:43:03.194Z,21.82
2023-05-10T11:46:11.858Z,22.21
2023-05-10T11:49:15.017Z,22.52
2023-05-10T11:52:20.117Z,22.52
2023-05-10T11:55:23.522Z,23.12
2023-05-10T11:58:26.476Z,22.32
2023-05-10T12:01:30.482Z,22.24
2023-05-10T12:04:33.726Z,22.26
2023-05-10T12:07:36.796Z,21.55
2023-05-10T12:10:40.016Z,20.85
2023-05-10T12:13:44.411Z,20.70
2023-05-10T12:16:49.131Z,22.00
2023-05-10T12:19:51.897Z,21.17
2023-05-10T12:22:59.022Z,21.91
2023-05-10T12:26:07.376Z,21.77
2023-05-10T12:29:18.319Z,21.43
2023-05-10T12:32:21.528Z,22.37
2023-05-10T12:35:25.278Z,21.96
2023-05-10T12:38:35.439Z,22.82
2023-05-10T12:41:39.657Z,22.86
2023-05-10T12:44:43.565Z,22.23
2023-05-10T12:47:46.592Z,21.46
2023-05-10T12:50:49.734Z,20.71
2023-05-10T12:53:53.304Z,19.80
2023-05-10T12:56:56.374Z,19.30
2023-05-10T12:59:59.569Z,20.27
2023-05-10T13:03:02.302Z,20.66
2023-05-10T13:06:05.674Z,20.73
2023-05-10T13:09:09.009Z,20.55
2023-05-10T13:12:12.806Z,20.84
2023-05-10T13:15:15.664Z,20.84
2023-05-10T13:18:19.067Z,20.78
2023-05-10T13:21:21.968Z,21.09
2023-05-10T13:24:25.086Z,20.68
2023-05-10T13:27:28.102Z,20.54
2023-05-10T13:30:34.499Z,20.37
2023-05-10T13:33:37.152Z,20.49
2023-05-10T13:36:40.437Z,20.17
2023-05-10T13:39:43.196Z,20.62
2023-05-10T13:42:46.554Z,20.55
2023-05-10T13:45:49.579Z,20.39
2023-05-10T13:48:52.540Z,20.26
2023-05-10T13:51:55.100Z,20.19
2023-05-10T13:54:58.426Z,20.02
2023-05-10T13:58:01.378Z,19.67
2023-05-10T14:01:05.899Z,19.51
2023-05-10T14:04:11.622Z,19.78
2023-05-10T14:07:14.291Z,19.75
2023-05-10T14:10:17.526Z,20.63
2023-05-10T14:13:20.140Z,20.76
2023-05-10T14:16:23.137Z,20.70
2023-05-10T14:19:26.127Z,20.42
2023-05-10T14:22:29.274Z,20.55
2023-05-10T14:25:32.050Z,20.26
2023-05-10T14:28:35.224Z,20.54
2023-05-10T14:31:37.838Z,20.61
2023-05-10T14:34:40.964Z,20.40
2023-05-10T14:37:43.968Z,20.26
2023-05-10T14:40:46.872Z,20.05
2023-05-10T14:43:49.669Z,19.80
2023-05-10T14:46:52.974Z,20.44
2023-05-10T14:49:55.548Z,20.53
2023-05-10T14:52:59.507Z,20.17
2023-05-10T14:56:05.091Z,19.98
2023-05-10T14:59:08.303Z,19.98
2023-05-10T15:02:11.484Z,19.67
2023-05-10T15:05:15.690Z,19.38
2023-05-10T15:08:19.144Z,19.64
2023-05-10T15:11:22.671Z,19.60
2023-05-10T15:14:25.441Z,19.50
2023-05-10T15:17:28.497Z,19.32
2023-05-10T15:20:31.254Z,19.41
2023-05-10T15:23:34.229Z,19.51
2023-05-10T15:26:37.052Z,19.74
2023-05-10T15:29:39.865Z,19.78
2023-05-10T15:32:42.545Z,19.98
2023-05-10T15:35:45.625Z,19.48
2023-05-10T15:38:48.279Z,19.62
2023-05-10T15:41:52.283Z,19.69
2023-05-10T15:44:54.830Z,19.44
2023-05-10T15:47:59.027Z,19.41
2023-05-10T15:51:01.759Z,19.14
2023-05-10T15:54:08.285Z,19.14
2023-05-10T15:57:11.242Z,19.07
2023-05-10T16:00:14.782Z,18.95
2023-05-10T16:03:17.368Z,18.99
2023-05-10T16:06:20.576Z,19.22
2023-05-10T16:09:23.621Z,19.34
2023-05-10T16:12:26.608Z,19.02
2023-05-10T16:15:29.491Z,19.01
2023-05-10T16:18:32.889Z,18.89
2023-05-10T16:21:36.010Z,18.78
2023-05-10T16:24:39.084Z,18.69
2023-05-10T16:27:41.786Z,18.56
2023-05-10T16:30:44.942Z,18.48
2023-05-10T16:33:47.637Z,18.45
2023-05-10T16:36:51.429Z,18.47
2023-05-10T16:39:54.062Z,18.44
2023-05-10T16:42:57.250Z,18.41
2023-05-10T16:46:00.017Z,18.33
2023-05-10T16:49:03.407Z,18.34
2023-05-10T16:52:06.106Z,18.34
2023-05-10T16:55:09.289Z,18.20
2023-05-10T16:58:12.115Z,18.18
2023-05-10T17:01:16.064Z,18.16
2023-05-10T17:04:18.975Z,18.22
2023-05-10T17:07:24.716Z,18.23
2023-05-10T17:10:28.975Z,18.08
2023-05-10T17:13:32.295Z,18.12
2023-05-10T17:16:35.842Z,17.98
2023-05-10T17:19:39.369Z,17.88
2023-05-10T17:22:42.183Z,17.80
2023-05-10T17:25:45.298Z,17.74
2023-05-10T17:28:47.979Z,17.67
2023-05-10T17:31:51.100Z,17.61
2023-05-10T17:34:53.828Z,17.49
2023-05-10T17:37:57.648Z,17.42
2023-05-10T17:41:00.296Z,17.35
2023-05-10T17:44:03.347Z,17.23
2023-05-10T17:47:06.678Z,17.16
2023-05-10T17:50:10.565Z,17.05
2023-05-10T17:53:13.250Z,16.95
2023-05-10T17:56:16.554Z,16.85
2023-05-10T17:59:19.452Z,16.72
2023-05-10T18:02:22.557Z,16.63
2023-05-10T18:05:25.986Z,16.54
2023-05-10T18:08:30.735Z,16.42
2023-05-10T18:11:36.708Z,16.29
2023-05-10T18:14:41.404Z,16.20
2023-05-10T18:17:44.910Z,16.14
2023-05-10T18:20:49.551Z,15.99
2023-05-10T18:23:52.648Z,15.89
2023-05-10T18:26:55.698Z,15.79
2023-05-10T18:30:02.713Z,15.67
2023-05-10T18:33:05.404Z,15.62
2023-05-10T18:36:09.140Z,15.53
2023-05-10T18:39:12.324Z,15.48
2023-05-10T18:42:15.751Z,15.43
2023-05-10T18:45:18.900Z,15.41
2023-05-10T18:48:22.907Z,15.43
2023-05-10T18:51:26.770Z,15.44
2023-05-10T18:54:30.384Z,15.51
2023-05-10T18:57:33.448Z,15.48
2023-05-10T19:00:37.136Z,15.50
2023-05-10T19:03:40.964Z,15.49
2023-05-10T19:06:44.372Z,15.47
2023-05-10T19:09:48.046Z,15.40
2023-05-10T19:12:51.541Z,15.31
2023-05-10T19:16:11.630Z,15.27
2023-05-10T19:19:15.119Z,15.25
2023-05-10T19:22:31.966Z,15.20
2023-05-10T19:25:46.126Z,15.11
2023-05-10T19:28:52.353Z,15.06
2023-05-10T19:31:55.757Z,15.03
2023-05-10T19:34:59.740Z,14.97
2023-05-10T19:38:02.757Z,14.94
2023-05-10T19:41:06.261Z,14.95
2023-05-10T19:44:09.789Z,14.96
2023-05-10T19:47:13.098Z,14.94
2023-05-10T19:50:18.882Z,14.94
2023-05-10T19:53:21.924Z,14.96
2023-05-10T19:56:27.390Z,14.96
2023-05-10T19:59:30.132Z,15.02
2023-05-10T20:02:33.903Z,15.08
2023-05-10T20:05:37.281Z,15.09
2023-05-10T20:08:40.637Z,15.10
2023-05-10T20:11:43.619Z,15.10
2023-05-10T20:14:47.509Z,15.06
2023-05-10T20:17:53.518Z,14.99
2023-05-10T20:20:59.713Z,14.98
2023-05-10T20:24:03.210Z,14.93
2023-05-10T20:27:07.776Z,14.90
2023-05-10T20:30:11.776Z,14.85
2023-05-10T20:33:18.125Z,14.85
2023-05-10T20:36:21.490Z,14.83
2023-05-10T20:39:24.664Z,14.85
2023-05-10T20:42:28.266Z,14.82
2023-05-10T20:45:31.128Z,14.83
2023-05-10T20:48:34.377Z,14.83
2023-05-10T20:51:37.170Z,14.80
2023-05-10T20:54:40.471Z,14.84
2023-05-10T20:57:43.149Z,14.86
2023-05-10T21:00:46.510Z,14.85
2023-05-10T21:03:49.153Z,14.80
2023-05-10T21:06:53.142Z,14.83
2023-05-10T21:09:55.892Z,14.77
2023-05-10T21:12:59.471Z,14.73
2023-05-10T21:16:02.228Z,14.71
2023-05-10T21:19:07.527Z,14.72
2023-05-10T21:22:10.575Z,14.74
2023-05-10T21:25:14.221Z,14.76
2023-05-10T21:28:17.112Z,14.80
2023-05-10T21:31:20.414Z,14.83
2023-05-10T21:34:23.117Z,14.86
2023-05-10T21:37:26.134Z,14.85
2023-05-10T21:40:29.178Z,14.83
2023-05-10T21:43:32.286Z,14.83
2023-05-10T21:46:34.873Z,14.89
2023-05-10T21:49:38.407Z,14.90
2023-05-10T21:52:41.134Z,14.88
2023-05-10T21:55:44.236Z,14.91
2023-05-10T21:58:47.442Z,14.99
2023-05-10T22:01:50.575Z,15.06
2023-05-10T22:04:53.670Z,15.09
2023-05-10T22:07:56.440Z,15.12
2023-05-10T22:10:59.507Z,15.18
2023-05-10T22:14:02.236Z,15.24
2023-05-10T22:17:05.409Z,15.24
2023-05-10T22:20:09.228Z,15.27
2023-05-10T22:23:12.694Z,15.31
2023-05-10T22:26:15.288Z,15.31
2023-05-10T22:29:18.293Z,15.32
2023-05-10T22:32:20.851Z,15.37
2023-05-10T22:35:23.817Z,15.36
2023-05-10T22:38:26.400Z,15.36
2023-05-10T22:41:29.734Z,15.37
2023-05-10T22:44:32.364Z,15.36
2023-05-10T22:47:35.567Z,15.39
2023-05-10T22:50:38.462Z,15.39
2023-05-10T22:53:41.666Z,15.40
2023-05-10T22:56:44.569Z,15.42
2023-05-10T22:59:49.051Z,15.35
2023-05-10T23:02:51.784Z,15.37
2023-05-10T23:05:54.826Z,15.37
2023-05-10T23:08:57.577Z,15.37
2023-05-10T23:12:00.719Z,15.25
2023-05-10T23:15:03.907Z,15.22
2023-05-10T23:18:06.966Z,15.28
2023-05-10T23:21:10.223Z,15.26
2023-05-10T23:24:13.737Z,15.27
2023-05-10T23:27:17.452Z,15.22
2023-05-10T23:30:20.688Z,15.21
2023-05-10T23:33:23.983Z,15.23
2023-05-10T23:36:27.056Z,15.26
2023-05-10T23:39:29.784Z,15.26
2023-05-10T23:42:33.090Z,15.15
2023-05-10T23:45:35.819Z,14.97
2023-05-10T23:48:39.330Z,14.99
2023-05-10T23:51:42.021Z,14.83
2023-05-10T23:54:46.015Z,14.74
2023-05-10T23:57:48.849Z,14.71
